sensor_id;sensor_type;location;lat;lon;timestamp;pressure;altitude;pressure_sealevel;temperature;humidity
18275;BME280;19470;49.322;7.218;2022-12-24T00:00:32;98201.81;;;13.18;100.00
18275;BME280;19470;49.322;7.218;2022-12-24T00:02:59;98210.78;;;13.53;100.00
18275;BME280;19470;49.322;7.218;2022-12-24T00:05:27;98214.22;;;13.59;100.00
18275;BME280;19470;49.322;7.218;2022-12-24T00:07:54;98218.03;;;13.32;100.00
18275;BME280;19470;49.322;7.218;2022-12-24T00:10:20;98205.94;;;13.70;100.00
18275;BME280;19470;49.322;7.218;2022-12-24T00:12:46;98213.47;;;13.48;100.00
18275;BME280;19470;49.322;7.218;2022-12-24T00:15:13;98204.91;;;13.56;100.00
18275;BME280;19470;49.322;7.218;2022-12-24T00:17:39;98219.03;;;13.51;100.00
18275;BME280;19470;49.322;7.218;2022-12-24T00:20:07;98218.41;;;13.75;100.00
18275;BME280;19470;49.322;7.218;2022-12-24T00:22:35;98236.66;;;13.32;100.00
18275;BME280;19470;49.322;7.218;2022-12-24T00:25:01;98237.94;;;13.40;100.00
18275;BME280;19470;49.322;7.218;2022-12-24T00:27:28;98252.06;;;13.35;100.00
18275;BME280;19470;49.322;7.218;2022-12-24T00:29:54;98251.25;;;13.35;100.00
18275;BME280;19470;49.322;7.218;2022-12-24T00:32:21;98240.91;;;13.08;100.00
18275;BME280;19470;49.322;7.218;2022-12-24T00:34:47;98266.69;;;13.02;100.00
18275;BME280;19470;49.322;7.218;2022-12-24T00:37:15;98255.25;;;13.37;100.00
18275;BME280;19470;49.322;7.218;2022-12-24T00:39:43;98255.50;;;13.20;100.00
18275;BME280;19470;49.322;7.218;2022-12-24T00:42:09;98246.47;;;13.16;100.00
18275;BME280;19470;49.322;7.218;2022-12-24T00:44:35;98246.47;;;13.21;100.00
18275;BME280;19470;49.322;7.218;2022-12-24T00:47:02;98248.06;;;13.12;100.00
18275;BME280;19470;49.322;7.218;2022-12-24T00:49:28;98258.72;;;13.07;100.00
18275;BME280;19470;49.322;7.218;2022-12-24T00:51:55;98243.81;;;13.26;100.00
18275;BME280;19470;49.322;7.218;2022-12-24T00:54:21;98236.13;;;13.04;100.00
18275;BME280;19470;49.322;7.218;2022-12-24T00:56:49;98247.59;;;12.90;100.00
18275;BME280;19470;49.322;7.218;2022-12-24T00:59:15;98251.03;;;13.00;100.00
18275;BME280;19470;49.322;7.218;2022-12-24T01:01:42;98257.66;;;12.93;100.00
18275;BME280;19470;49.322;7.218;2022-12-24T01:04:08;98274.97;;;12.85;100.00
18275;BME280;19470;49.322;7.218;2022-12-24T01:06:49;98256.09;;;12.76;100.00
18275;BME280;19470;49.322;7.218;2022-12-24T01:09:15;98276.81;;;12.90;100.00
18275;BME280;19470;49.322;7.218;2022-12-24T01:11:42;98285.84;;;12.89;100.00
18275;BME280;19470;49.322;7.218;2022-12-24T01:14:11;98288.78;;;13.13;100.00
18275;BME280;19470;49.322;7.218;2022-12-24T01:16:38;98290.38;;;13.14;100.00
18275;BME280;19470;49.322;7.218;2022-12-24T01:19:04;98300.22;;;13.08;100.00
18275;BME280;19470;49.322;7.218;2022-12-24T01:21:31;98305.00;;;13.32;100.00
18275;BME280;19470;49.322;7.218;2022-12-24T01:23:57;98298.34;;;13.14;100.00
18275;BME280;19470;49.322;7.218;2022-12-24T01:26:24;98303.38;;;13.00;100.00
18275;BME280;19470;49.322;7.218;2022-12-24T01:28:50;98310.28;;;13.01;100.00
18275;BME280;19470;49.322;7.218;2022-12-24T01:31:18;98317.75;;;13.29;100.00
18275;BME280;19470;49.322;7.218;2022-12-24T01:37:06;98309.22;;;12.97;100.00
18275;BME280;19470;49.322;7.218;2022-12-24T01:39:33;98314.81;;;12.80;100.00
18275;BME280;19470;49.322;7.218;2022-12-24T01:41:59;98306.06;;;12.85;100.00
18275;BME280;19470;49.322;7.218;2022-12-24T01:44:47;98313.47;;;12.93;100.00
18275;BME280;19470;49.322;7.218;2022-12-24T01:47:19;98314.03;;;12.90;100.00
18275;BME280;19470;49.322;7.218;2022-12-24T01:49:49;98320.41;;;12.99;100.00
18275;BME280;19470;49.322;7.218;2022-12-24T01:52:18;98331.03;;;12.94;100.00
18275;BME280;19470;49.322;7.218;2022-12-24T01:54:48;98315.88;;;12.89;100.00
18275;BME280;19470;49.322;7.218;2022-12-24T01:57:19;98306.06;;;12.95;100.00
18275;BME280;19470;49.322;7.218;2022-12-24T01:59:49;98317.19;;;13.02;100.00
18275;BME280;19470;49.322;7.218;2022-12-24T02:02:19;98320.38;;;12.73;100.00
18275;BME280;19470;49.322;7.218;2022-12-24T02:04:50;98312.69;;;12.92;100.00
18275;BME280;19470;49.322;7.218;2022-12-24T02:07:19;98314.31;;;13.24;100.00
18275;BME280;19470;49.322;7.218;2022-12-24T02:09:46;98306.03;;;13.05;100.00
18275;BME280;19470;49.322;7.218;2022-12-24T02:12:14;98310.25;;;12.65;100.00
18275;BME280;19470;49.322;7.218;2022-12-24T02:14:41;98317.19;;;13.02;100.00
18275;BME280;19470;49.322;7.218;2022-12-24T02:17:19;98324.09;;;12.77;100.00
18275;BME280;19470;49.322;7.218;2022-12-24T02:20:13;98316.94;;;13.09;100.00
18275;BME280;19470;49.322;7.218;2022-12-24T02:23:01;98330.75;;;13.11;100.00
18275;BME280;19470;49.322;7.218;2022-12-24T02:25:43;98335.53;;;12.83;100.00
18275;BME280;19470;49.322;7.218;2022-12-24T02:28:23;98331.28;;;12.77;100.00
18275;BME280;19470;49.322;7.218;2022-12-24T02:30:58;98319.59;;;12.78;100.00
18275;BME280;19470;49.322;7.218;2022-12-24T02:33:30;98325.69;;;12.73;100.00
18275;BME280;19470;49.322;7.218;2022-12-24T02:36:03;98334.22;;;13.11;100.00
18275;BME280;19470;49.322;7.218;2022-12-24T02:38:32;98353.03;;;12.69;100.00
18275;BME280;19470;49.322;7.218;2022-12-24T02:41:06;98348.56;;;12.95;100.00
18275;BME280;19470;49.322;7.218;2022-12-24T02:43:43;98354.97;;;13.14;100.00
18275;BME280;19470;49.322;7.218;2022-12-24T02:46:13;98362.91;;;12.84;100.00
18275;BME280;19470;49.322;7.218;2022-12-24T02:48:43;98358.66;;;12.93;100.00
18275;BME280;19470;49.322;7.218;2022-12-24T02:51:11;98363.44;;;12.81;100.00
18275;BME280;19470;49.322;7.218;2022-12-24T02:53:38;98363.44;;;13.21;100.00
18275;BME280;19470;49.322;7.218;2022-12-24T02:56:17;98360.00;;;13.05;100.00
18275;BME280;19470;49.322;7.218;2022-12-24T02:58:58;98349.38;;;12.95;100.00
18275;BME280;19470;49.322;7.218;2022-12-24T03:01:39;98353.34;;;12.98;100.00
18275;BME280;19470;49.322;7.218;2022-12-24T03:04:13;98352.03;;;12.85;100.00
18275;BME280;19470;49.322;7.218;2022-12-24T03:06:49;98369.28;;;12.77;100.00
18275;BME280;19470;49.322;7.218;2022-12-24T03:09:19;98381.81;;;13.18;100.00
18275;BME280;19470;49.322;7.218;2022-12-24T03:12:06;98399.06;;;13.00;100.00
18275;BME280;19470;49.322;7.218;2022-12-24T03:14:36;98383.94;;;13.16;100.00
18275;BME280;19470;49.322;7.218;2022-12-24T03:17:07;98381.81;;;13.13;100.00
18275;BME280;19470;49.322;7.218;2022-12-24T03:19:40;98371.94;;;12.77;100.00
18275;BME280;19470;49.322;7.218;2022-12-24T03:22:08;98368.78;;;13.01;100.00
18275;BME280;19470;49.322;7.218;2022-12-24T03:24:36;98379.41;;;13.11;100.00
18275;BME280;19470;49.322;7.218;2022-12-24T03:27:04;98390.59;;;13.08;100.00
18275;BME280;19470;49.322;7.218;2022-12-24T03:29:31;98403.06;;;13.02;100.00
18275;BME280;19470;49.322;7.218;2022-12-24T03:31:59;98412.28;;;12.64;100.00
18275;BME280;19470;49.322;7.218;2022-12-24T03:34:28;98412.84;;;12.76;100.00
18275;BME280;19470;49.322;7.218;2022-12-24T03:36:55;98419.84;;;13.13;100.00
18275;BME280;19470;49.322;7.218;2022-12-24T03:39:21;98418.19;;;12.87;100.00
18275;BME280;19470;49.322;7.218;2022-12-24T03:41:48;98428.78;;;12.66;100.00
18275;BME280;19470;49.322;7.218;2022-12-24T03:44:14;98403.34;;;13.06;100.00
18275;BME280;19470;49.322;7.218;2022-12-24T03:46:41;98401.16;;;12.77;100.00
18275;BME280;19470;49.322;7.218;2022-12-24T03:49:07;98415.50;;;12.76;100.00
18275;BME280;19470;49.322;7.218;2022-12-24T03:51:35;98426.16;;;12.87;100.00
18275;BME280;19470;49.322;7.218;2022-12-24T03:54:01;98427.69;;;12.67;100.00
18275;BME280;19470;49.322;7.218;2022-12-24T03:56:28;98421.59;;;12.67;100.00
18275;BME280;19470;49.322;7.218;2022-12-24T03:58:54;98418.91;;;12.51;100.00
18275;BME280;19470;49.322;7.218;2022-12-24T04:01:21;98400.03;;;12.58;100.00
18275;BME280;19470;49.322;7.218;2022-12-24T04:07:10;98423.28;;;13.09;100.00
18275;BME280;19470;49.322;7.218;2022-12-24T04:09:36;98436.75;;;12.71;100.00
18275;BME280;19470;49.322;7.218;2022-12-24T04:12:03;98437.56;;;12.77;100.00
18275;BME280;19470;49.322;7.218;2022-12-24T04:14:30;98446.16;;;13.10;100.00
18275;BME280;19470;49.322;7.218;2022-12-24T04:16:56;98444.25;;;12.95;100.00
18275;BME280;19470;49.322;7.218;2022-12-24T04:19:23;98442.41;;;12.95;100.00
18275;BME280;19470;49.322;7.218;2022-12-24T04:21:49;98441.63;;;13.10;100.00
18275;BME280;19470;49.322;7.218;2022-12-24T04:24:18;98450.00;;;12.61;100.00
18275;BME280;19470;49.322;7.218;2022-12-24T04:26:44;98446.56;;;12.66;100.00
18275;BME280;19470;49.322;7.218;2022-12-24T04:29:10;98447.69;;;12.90;100.00
18275;BME280;19470;49.322;7.218;2022-12-24T04:31:38;98444.00;;;13.01;100.00
18275;BME280;19470;49.322;7.218;2022-12-24T04:34:04;98438.94;;;12.95;100.00
18275;BME280;19470;49.322;7.218;2022-12-24T04:36:31;98445.06;;;13.05;100.00
18275;BME280;19470;49.322;7.218;2022-12-24T04:38:57;98446.03;;;12.69;100.00
18275;BME280;19470;49.322;7.218;2022-12-24T04:41:25;98453.31;;;12.94;100.00
18275;BME280;19470;49.322;7.218;2022-12-24T04:43:52;98460.09;;;12.69;100.00
18275;BME280;19470;49.322;7.218;2022-12-24T04:46:23;98454.78;;;12.64;100.00
18275;BME280;19470;49.322;7.218;2022-12-24T04:48:51;98429.91;;;12.91;100.00
18275;BME280;19470;49.322;7.218;2022-12-24T04:51:19;98436.81;;;12.97;100.00
18275;BME280;19470;49.322;7.218;2022-12-24T04:53:45;98421.63;;;12.77;100.00
18275;BME280;19470;49.322;7.218;2022-12-24T04:56:13;98422.22;;;13.04;100.00
18275;BME280;19470;49.322;7.218;2022-12-24T04:58:41;98424.03;;;12.89;100.00
18275;BME280;19470;49.322;7.218;2022-12-24T05:01:13;98436.78;;;12.87;100.00
18275;BME280;19470;49.322;7.218;2022-12-24T05:03:40;98435.69;;;12.72;100.00
18275;BME280;19470;49.322;7.218;2022-12-24T05:06:09;98443.13;;;12.70;100.00
18275;BME280;19470;49.322;7.218;2022-12-24T05:08:37;98446.28;;;12.57;100.00
18275;BME280;19470;49.322;7.218;2022-12-24T05:11:04;98435.22;;;13.01;100.00
18275;BME280;19470;49.322;7.218;2022-12-24T05:13:31;98439.88;;;12.58;100.00
18275;BME280;19470;49.322;7.218;2022-12-24T05:15:59;98441.19;;;12.56;100.00
18275;BME280;19470;49.322;7.218;2022-12-24T05:18:25;98446.78;;;12.54;100.00
18275;BME280;19470;49.322;7.218;2022-12-24T05:20:52;98453.25;;;12.84;100.00
18275;BME280;19470;49.322;7.218;2022-12-24T05:23:21;98449.91;;;12.41;100.00
18275;BME280;19470;49.322;7.218;2022-12-24T05:26:11;98469.25;;;12.36;100.00
18275;BME280;19470;49.322;7.218;2022-12-24T05:28:49;98455.56;;;12.60;100.00
18275;BME280;19470;49.322;7.218;2022-12-24T05:31:18;98468.09;;;12.74;100.00
18275;BME280;19470;49.322;7.218;2022-12-24T05:33:45;98470.16;;;12.52;100.00
18275;BME280;19470;49.322;7.218;2022-12-24T05:36:11;98480.91;;;12.88;100.00
18275;BME280;19470;49.322;7.218;2022-12-24T05:38:38;98485.47;;;13.02;100.00
18275;BME280;19470;49.322;7.218;2022-12-24T05:41:05;98475.50;;;12.62;100.00
18275;BME280;19470;49.322;7.218;2022-12-24T05:43:31;98473.78;;;12.36;100.00
18275;BME280;19470;49.322;7.218;2022-12-24T05:45:58;98474.41;;;12.53;100.00
18275;BME280;19470;49.322;7.218;2022-12-24T05:48:26;98486.59;;;12.49;100.00
18275;BME280;19470;49.322;7.218;2022-12-24T05:50:53;98477.03;;;12.48;100.00
18275;BME280;19470;49.322;7.218;2022-12-24T05:53:20;98481.34;;;12.64;100.00
18275;BME280;19470;49.322;7.218;2022-12-24T05:55:47;98486.97;;;12.73;100.00
18275;BME280;19470;49.322;7.218;2022-12-24T05:58:14;98490.09;;;12.60;100.00
18275;BME280;19470;49.322;7.218;2022-12-24T06:00:41;98495.53;;;12.33;100.00
18275;BME280;19470;49.322;7.218;2022-12-24T06:03:07;98484.63;;;12.92;100.00
18275;BME280;19470;49.322;7.218;2022-12-24T06:05:35;98489.53;;;12.52;100.00
18275;BME280;19470;49.322;7.218;2022-12-24T06:08:03;98493.84;;;12.69;100.00
18275;BME280;19470;49.322;7.218;2022-12-24T06:10:30;98494.47;;;12.28;100.00
18275;BME280;19470;49.322;7.218;2022-12-24T06:12:56;98481.84;;;12.56;100.00
18275;BME280;19470;49.322;7.218;2022-12-24T06:15:23;98493.03;;;12.58;100.00
18275;BME280;19470;49.322;7.218;2022-12-24T06:17:49;98497.94;;;12.34;100.00
18275;BME280;19470;49.322;7.218;2022-12-24T06:20:16;98503.63;;;12.53;100.00
18275;BME280;19470;49.322;7.218;2022-12-24T06:22:43;98506.16;;;12.33;100.00
18275;BME280;19470;49.322;7.218;2022-12-24T06:25:10;98509.34;;;12.30;100.00
18275;BME280;19470;49.322;7.218;2022-12-24T06:27:37;98500.53;;;12.76;100.00
18275;BME280;19470;49.322;7.218;2022-12-24T06:30:05;98498.94;;;12.75;100.00
18275;BME280;19470;49.322;7.218;2022-12-24T06:32:31;98509.06;;;12.89;100.00
18275;BME280;19470;49.322;7.218;2022-12-24T06:34:58;98513.91;;;13.02;100.00
18275;BME280;19470;49.322;7.218;2022-12-24T06:37:24;98505.84;;;12.71;100.00
18275;BME280;19470;49.322;7.218;2022-12-24T06:39:52;98505.91;;;12.92;100.00
18275;BME280;19470;49.322;7.218;2022-12-24T06:42:18;98507.94;;;12.74;100.00
18275;BME280;19470;49.322;7.218;2022-12-24T06:44:45;98507.50;;;12.98;100.00
18275;BME280;19470;49.322;7.218;2022-12-24T06:47:11;98508.94;;;12.58;100.00
18275;BME280;19470;49.322;7.218;2022-12-24T06:49:38;98507.16;;;12.74;100.00
18275;BME280;19470;49.322;7.218;2022-12-24T06:52:04;98502.59;;;12.64;100.00
18275;BME280;19470;49.322;7.218;2022-12-24T06:54:31;98516.44;;;12.66;100.00
18275;BME280;19470;49.322;7.218;2022-12-24T06:56:58;98521.69;;;12.56;100.00
18275;BME280;19470;49.322;7.218;2022-12-24T06:59:25;98539.69;;;12.44;100.00
18275;BME280;19470;49.322;7.218;2022-12-24T07:01:51;98522.25;;;12.58;100.00
18275;BME280;19470;49.322;7.218;2022-12-24T07:04:18;98522.69;;;13.08;100.00
18275;BME280;19470;49.322;7.218;2022-12-24T07:06:44;98515.81;;;12.49;100.00
18275;BME280;19470;49.322;7.218;2022-12-24T07:09:11;98521.53;;;12.83;100.00
18275;BME280;19470;49.322;7.218;2022-12-24T07:11:39;98527.47;;;12.43;100.00
18275;BME280;19470;49.322;7.218;2022-12-24T07:20:50;98529.13;;;12.54;100.00
18275;BME280;19470;49.322;7.218;2022-12-24T07:23:16;98528.16;;;12.70;100.00
18275;BME280;19470;49.322;7.218;2022-12-24T07:25:43;98531.38;;;12.83;100.00
18275;BME280;19470;49.322;7.218;2022-12-24T07:28:09;98525.63;;;12.48;100.00
18275;BME280;19470;49.322;7.218;2022-12-24T07:30:36;98520.72;;;12.77;100.00
18275;BME280;19470;49.322;7.218;2022-12-24T07:33:02;98540.47;;;13.02;100.00
18275;BME280;19470;49.322;7.218;2022-12-24T07:35:29;98549.34;;;12.60;100.00
18275;BME280;19470;49.322;7.218;2022-12-24T07:37:57;98547.31;;;12.83;100.00
18275;BME280;19470;49.322;7.218;2022-12-24T07:40:23;98540.44;;;12.92;100.00
18275;BME280;19470;49.322;7.218;2022-12-24T07:42:49;98544.50;;;13.04;100.00
18275;BME280;19470;49.322;7.218;2022-12-24T07:45:16;98548.66;;;12.80;100.00
18275;BME280;19470;49.322;7.218;2022-12-24T07:47:42;98554.56;;;12.97;100.00
18275;BME280;19470;49.322;7.218;2022-12-24T07:50:09;98557.00;;;13.04;100.00
18275;BME280;19470;49.322;7.218;2022-12-24T07:52:36;98549.00;;;13.04;100.00
18275;BME280;19470;49.322;7.218;2022-12-24T07:55:05;98551.78;;;12.67;100.00
18275;BME280;19470;49.322;7.218;2022-12-24T07:57:31;98562.09;;;12.58;100.00
18275;BME280;19470;49.322;7.218;2022-12-24T07:59:58;98563.84;;;12.42;100.00
18275;BME280;19470;49.322;7.218;2022-12-24T08:02:24;98576.13;;;13.06;100.00
18275;BME280;19470;49.322;7.218;2022-12-24T08:04:51;98571.56;;;12.91;100.00
18275;BME280;19470;49.322;7.218;2022-12-24T08:07:17;98575.44;;;12.31;100.00
18275;BME280;19470;49.322;7.218;2022-12-24T08:09:44;98571.88;;;12.52;100.00
18275;BME280;19470;49.322;7.218;2022-12-24T08:12:12;98582.31;;;12.69;100.00
18275;BME280;19470;49.322;7.218;2022-12-24T08:14:38;98583.44;;;12.78;100.00
18275;BME280;19470;49.322;7.218;2022-12-24T08:17:04;98588.53;;;12.85;100.00
18275;BME280;19470;49.322;7.218;2022-12-24T08:19:31;98583.72;;;12.82;100.00
18275;BME280;19470;49.322;7.218;2022-12-24T08:21:57;98584.13;;;12.59;100.00
18275;BME280;19470;49.322;7.218;2022-12-24T08:24:24;98577.06;;;12.79;100.00
18275;BME280;19470;49.322;7.218;2022-12-24T08:26:50;98579.78;;;12.90;100.00
18275;BME280;19470;49.322;7.218;2022-12-24T08:29:18;98582.94;;;12.82;100.00
18275;BME280;19470;49.322;7.218;2022-12-24T08:31:45;98590.53;;;12.63;100.00
18275;BME280;19470;49.322;7.218;2022-12-24T08:34:11;98591.88;;;12.65;100.00
18275;BME280;19470;49.322;7.218;2022-12-24T08:36:38;98588.28;;;12.92;100.00
18275;BME280;19470;49.322;7.218;2022-12-24T08:39:04;98601.38;;;12.56;100.00
18275;BME280;19470;49.322;7.218;2022-12-24T08:41:33;98600.13;;;12.69;100.00
18275;BME280;19470;49.322;7.218;2022-12-24T08:43:59;98592.38;;;13.15;100.00
18275;BME280;19470;49.322;7.218;2022-12-24T08:46:27;98589.41;;;13.06;100.00
18275;BME280;19470;49.322;7.218;2022-12-24T08:48:54;98611.09;;;12.83;100.00
18275;BME280;19470;49.322;7.218;2022-12-24T08:51:20;98610.94;;;12.52;100.00
18275;BME280;19470;49.322;7.218;2022-12-24T08:53:47;98616.41;;;12.40;100.00
18275;BME280;19470;49.322;7.218;2022-12-24T08:56:13;98620.97;;;12.92;100.00
18275;BME280;19470;49.322;7.218;2022-12-24T08:58:40;98618.66;;;13.06;100.00
18275;BME280;19470;49.322;7.218;2022-12-24T09:01:11;98627.00;;;12.72;100.00
18275;BME280;19470;49.322;7.218;2022-12-24T09:03:39;98617.88;;;13.11;100.00
18275;BME280;19470;49.322;7.218;2022-12-24T09:06:06;98625.00;;;12.95;100.00
18275;BME280;19470;49.322;7.218;2022-12-24T09:08:33;98636.56;;;12.73;100.00
18275;BME280;19470;49.322;7.218;2022-12-24T09:11:03;98619.13;;;12.93;100.00
18275;BME280;19470;49.322;7.218;2022-12-24T09:13:29;98630.50;;;13.36;100.00
18275;BME280;19470;49.322;7.218;2022-12-24T09:15:56;98638.50;;;13.36;100.00
18275;BME280;19470;49.322;7.218;2022-12-24T09:18:22;98651.16;;;13.18;100.00
18275;BME280;19470;49.322;7.218;2022-12-24T09:20:50;98642.63;;;13.16;100.00
18275;BME280;19470;49.322;7.218;2022-12-24T09:23:17;98640.63;;;13.39;100.00
18275;BME280;19470;49.322;7.218;2022-12-24T09:25:43;98640.31;;;12.77;100.00
18275;BME280;19470;49.322;7.218;2022-12-24T09:28:10;98656.66;;;13.01;100.00
18275;BME280;19470;49.322;7.218;2022-12-24T09:30:36;98646.38;;;13.20;100.00
18275;BME280;19470;49.322;7.218;2022-12-24T09:36:26;98659.28;;;12.96;100.00
18275;BME280;19470;49.322;7.218;2022-12-24T09:38:52;98655.84;;;13.53;100.00
18275;BME280;19470;49.322;7.218;2022-12-24T09:41:30;98659.13;;;13.13;100.00
18275;BME280;19470;49.322;7.218;2022-12-24T09:46:46;98673.38;;;12.97;100.00
18275;BME280;19470;49.322;7.218;2022-12-24T09:49:19;98673.97;;;13.04;100.00
18275;BME280;19470;49.322;7.218;2022-12-24T09:51:51;98666.44;;;13.38;100.00
18275;BME280;19470;49.322;7.218;2022-12-24T09:54:23;98679.81;;;13.06;100.00
18275;BME280;19470;49.322;7.218;2022-12-24T09:56:51;98685.16;;;13.11;100.00
18275;BME280;19470;49.322;7.218;2022-12-24T09:59:20;98676.78;;;13.35;100.00
18275;BME280;19470;49.322;7.218;2022-12-24T10:01:49;98686.78;;;13.65;100.00
18275;BME280;19470;49.322;7.218;2022-12-24T10:04:18;98679.47;;;13.40;100.00
18275;BME280;19470;49.322;7.218;2022-12-24T10:06:51;98678.34;;;14.03;100.00
18275;BME280;19470;49.322;7.218;2022-12-24T10:09:27;98673.78;;;13.78;100.00
18275;BME280;19470;49.322;7.218;2022-12-24T10:12:03;98681.28;;;14.12;100.00
18275;BME280;19470;49.322;7.218;2022-12-24T10:14:42;98679.25;;;13.46;100.00
18275;BME280;19470;49.322;7.218;2022-12-24T10:17:25;98682.22;;;13.55;100.00
18275;BME280;19470;49.322;7.218;2022-12-24T10:20:03;98689.38;;;13.07;100.00
18275;BME280;19470;49.322;7.218;2022-12-24T10:22:47;98684.75;;;14.18;100.00
18275;BME280;19470;49.322;7.218;2022-12-24T10:25:21;98692.34;;;13.73;100.00
18275;BME280;19470;49.322;7.218;2022-12-24T10:27:50;98692.19;;;14.05;100.00
18275;BME280;19470;49.322;7.218;2022-12-24T10:30:22;98688.38;;;13.66;100.00
18275;BME280;19470;49.322;7.218;2022-12-24T10:32:50;98687.09;;;13.89;100.00
18275;BME280;19470;49.322;7.218;2022-12-24T10:35:20;98681.19;;;13.71;100.00
18275;BME280;19470;49.322;7.218;2022-12-24T10:41:11;98669.84;;;14.12;100.00
18275;BME280;19470;49.322;7.218;2022-12-24T10:43:39;98677.53;;;14.03;100.00
18275;BME280;19470;49.322;7.218;2022-12-24T10:46:14;98678.00;;;13.69;100.00
18275;BME280;19470;49.322;7.218;2022-12-24T10:48:44;98672.94;;;13.78;100.00
18275;BME280;19470;49.322;7.218;2022-12-24T10:51:19;98682.84;;;13.93;100.00
18275;BME280;19470;49.322;7.218;2022-12-24T10:53:48;98674.09;;;14.18;100.00
18275;BME280;19470;49.322;7.218;2022-12-24T10:56:18;98680.75;;;14.10;100.00
18275;BME280;19470;49.322;7.218;2022-12-24T10:58:51;98684.47;;;14.04;100.00
18275;BME280;19470;49.322;7.218;2022-12-24T11:01:18;98695.47;;;13.50;100.00
18275;BME280;19470;49.322;7.218;2022-12-24T11:03:58;98689.91;;;13.51;100.00
18275;BME280;19470;49.322;7.218;2022-12-24T11:06:25;98689.22;;;13.87;100.00
18275;BME280;19470;49.322;7.218;2022-12-24T11:12:21;98689.81;;;14.19;100.00
18275;BME280;19470;49.322;7.218;2022-12-24T11:14:58;98691.25;;;13.64;100.00
18275;BME280;19470;49.322;7.218;2022-12-24T11:17:26;98678.06;;;14.05;100.00
18275;BME280;19470;49.322;7.218;2022-12-24T11:19:53;98676.06;;;13.54;100.00
18275;BME280;19470;49.322;7.218;2022-12-24T11:22:22;98693.84;;;13.39;100.00
18275;BME280;19470;49.322;7.218;2022-12-24T11:24:57;98680.88;;;12.63;100.00
18275;BME280;19470;49.322;7.218;2022-12-24T11:27:33;98692.50;;;12.94;100.00
18275;BME280;19470;49.322;7.218;2022-12-24T11:30:26;98676.88;;;13.08;100.00
18275;BME280;19470;49.322;7.218;2022-12-24T11:33:18;98672.81;;;13.32;100.00
18275;BME280;19470;49.322;7.218;2022-12-24T11:35:48;98669.19;;;13.06;100.00
18275;BME280;19470;49.322;7.218;2022-12-24T11:38:19;98672.94;;;13.15;100.00
18275;BME280;19470;49.322;7.218;2022-12-24T11:40:48;98672.16;;;13.15;100.00
18275;BME280;19470;49.322;7.218;2022-12-24T11:43:18;98677.50;;;12.77;100.00
18275;BME280;19470;49.322;7.218;2022-12-24T11:45:50;98676.13;;;13.17;100.00
18275;BME280;19470;49.322;7.218;2022-12-24T11:48:28;98678.25;;;12.68;100.00
18275;BME280;19470;49.322;7.218;2022-12-24T11:50:56;98673.00;;;12.78;100.00
18275;BME280;19470;49.322;7.218;2022-12-24T11:53:25;98668.19;;;12.75;100.00
18275;BME280;19470;49.322;7.218;2022-12-24T11:55:55;98674.50;;;13.06;100.00
18275;BME280;19470;49.322;7.218;2022-12-24T11:58:29;98674.69;;;13.37;100.00
18275;BME280;19470;49.322;7.218;2022-12-24T12:01:08;98680.69;;;12.79;100.00
18275;BME280;19470;49.322;7.218;2022-12-24T12:03:39;98669.84;;;13.23;100.00
18275;BME280;19470;49.322;7.218;2022-12-24T12:06:19;98677.00;;;12.81;100.00
18275;BME280;19470;49.322;7.218;2022-12-24T12:08:49;98687.59;;;13.18;100.00
18275;BME280;19470;49.322;7.218;2022-12-24T12:11:20;98682.31;;;12.81;100.00
18275;BME280;19470;49.322;7.218;2022-12-24T12:13:49;98679.13;;;13.26;100.00
18275;BME280;19470;49.322;7.218;2022-12-24T12:16:19;98676.31;;;13.48;100.00
18275;BME280;19470;49.322;7.218;2022-12-24T12:18:52;98670.56;;;13.81;100.00
18275;BME280;19470;49.322;7.218;2022-12-24T12:21:23;98685.41;;;13.57;100.00
18275;BME280;19470;49.322;7.218;2022-12-24T12:23:54;98687.47;;;13.45;100.00
18275;BME280;19470;49.322;7.218;2022-12-24T12:26:24;98680.16;;;13.88;100.00
18275;BME280;19470;49.322;7.218;2022-12-24T12:28:56;98689.28;;;13.34;100.00
18275;BME280;19470;49.322;7.218;2022-12-24T12:31:27;98684.34;;;13.63;100.00
18275;BME280;19470;49.322;7.218;2022-12-24T12:33:58;98673.22;;;13.76;100.00
18275;BME280;19470;49.322;7.218;2022-12-24T12:36:29;98689.59;;;13.43;100.00
18275;BME280;19470;49.322;7.218;2022-12-24T12:38:57;98678.03;;;13.90;100.00
18275;BME280;19470;49.322;7.218;2022-12-24T12:41:37;98681.78;;;13.89;100.00
18275;BME280;19470;49.322;7.218;2022-12-24T12:44:35;98679.91;;;13.79;100.00
18275;BME280;19470;49.322;7.218;2022-12-24T12:47:18;98686.53;;;13.81;100.00
18275;BME280;19470;49.322;7.218;2022-12-24T12:53:38;98683.66;;;13.93;100.00
18275;BME280;19470;49.322;7.218;2022-12-24T12:56:15;98687.59;;;13.80;100.00
18275;BME280;19470;49.322;7.218;2022-12-24T12:58:47;98690.09;;;14.28;100.00
18275;BME280;19470;49.322;7.218;2022-12-24T13:01:22;98683.91;;;13.92;100.00
18275;BME280;19470;49.322;7.218;2022-12-24T13:04:18;98683.59;;;13.83;100.00
18275;BME280;19470;49.322;7.218;2022-12-24T13:07:22;98687.88;;;13.74;100.00
18275;BME280;19470;49.322;7.218;2022-12-24T13:10:05;98701.97;;;13.74;100.00
18275;BME280;19470;49.322;7.218;2022-12-24T13:12:43;98700.19;;;13.33;100.00
18275;BME280;19470;49.322;7.218;2022-12-24T13:15:31;98691.31;;;13.69;100.00
18275;BME280;19470;49.322;7.218;2022-12-24T13:18:22;98697.53;;;13.33;100.00
18275;BME280;19470;49.322;7.218;2022-12-24T13:20:57;98684.91;;;13.65;100.00
18275;BME280;19470;49.322;7.218;2022-12-24T13:23:25;98679.59;;;13.70;100.00
18275;BME280;19470;49.322;7.218;2022-12-24T13:25:55;98675.38;;;13.90;100.00
18275;BME280;19470;49.322;7.218;2022-12-24T13:28:33;98678.03;;;13.90;100.00
18275;BME280;19470;49.322;7.218;2022-12-24T13:31:26;98688.06;;;13.62;100.00
18275;BME280;19470;49.322;7.218;2022-12-24T13:34:00;98699.38;;;14.10;100.00